createdAt,value
2023-04-29T00:00:15.242Z,12.50
2023-04-29T00:03:37.086Z,12.52
2023-04-29T00:06:38.921Z,12.54
2023-04-29T00:09:41.091Z,12.56
2023-04-29T00:12:42.879Z,12.56
2023-04-29T00:15:45.658Z,12.57
2023-04-29T00:18:47.348Z,12.57
2023-04-29T00:21:49.143Z,12.57
2023-04-29T00:24:50.831Z,12.58
2023-04-29T00:27:52.477Z,12.57
2023-04-29T00:30:55.386Z,12.58
2023-04-29T00:33:57.492Z,12.57
2023-04-29T00:36:59.159Z,12.57
2023-04-29T00:40:01.028Z,12.57
2023-04-29T00:43:02.675Z,12.57
2023-04-29T00:46:04.448Z,12.58
2023-04-29T00:49:07.713Z,12.58
2023-04-29T00:52:11.832Z,12.59
2023-04-29T00:55:13.847Z,12.60
2023-04-29T00:58:17.865Z,12.60
2023-04-29T01:01:19.710Z,12.61
2023-04-29T01:04:21.881Z,12.61
2023-04-29T01:07:41.833Z,12.61
2023-04-29T01:10:54.791Z,12.61
2023-04-29T01:14:02.593Z,12.61
2023-04-29T01:17:19.028Z,12.60
2023-04-29T01:20:21.853Z,12.59
2023-04-29T01:23:28.373Z,12.59
2023-04-29T01:26:32.580Z,12.58
2023-04-29T01:29:59.196Z,12.58
2023-04-29T01:33:22.757Z,12.58
2023-04-29T01:36:36.691Z,12.57
2023-04-29T01:39:41.312Z,12.57
2023-04-29T01:43:03.769Z,12.56
2023-04-29T01:46:10.425Z,12.56
2023-04-29T01:49:12.398Z,12.55
2023-04-29T01:52:14.114Z,12.54
2023-04-29T01:55:19.916Z,12.54
2023-04-29T01:58:32.559Z,12.53
2023-04-29T02:02:04.181Z,12.52
2023-04-29T02:05:07.016Z,12.51
2023-04-29T02:08:08.821Z,12.50
2023-04-29T02:11:13.943Z,12.49
2023-04-29T02:14:16.656Z,12.48
2023-04-29T02:17:18.390Z,12.47
2023-04-29T02:20:20.516Z,12.45
2023-04-29T02:23:22.256Z,12.46
2023-04-29T02:26:24.019Z,12.45
2023-04-29T02:29:26.624Z,12.45
2023-04-29T02:32:29.804Z,12.46
2023-04-29T02:35:31.516Z,12.46
2023-04-29T02:38:33.428Z,12.47
2023-04-29T02:41:35.169Z,12.47
2023-04-29T02:44:37.014Z,12.48
2023-04-29T02:47:38.717Z,12.49
2023-04-29T02:50:40.475Z,12.50
2023-04-29T02:53:42.259Z,12.50
2023-04-29T02:56:44.062Z,12.50
2023-04-29T02:59:45.882Z,12.50
2023-04-29T03:02:47.714Z,12.51
2023-04-29T03:05:49.730Z,12.51
2023-04-29T03:08:52.439Z,12.52
2023-04-29T03:11:54.141Z,12.53
2023-04-29T03:14:56.367Z,12.53
2023-04-29T03:18:01.145Z,12.52
2023-04-29T03:21:04.083Z,12.53
2023-04-29T03:24:06.080Z,12.53
2023-04-29T03:27:08.777Z,12.52
2023-04-29T03:30:10.741Z,12.51
2023-04-29T03:33:17.685Z,12.50
2023-04-29T03:36:19.557Z,12.50
2023-04-29T03:39:34.408Z,12.49
2023-04-29T03:42:36.090Z,12.48
2023-04-29T03:45:38.039Z,12.49
2023-04-29T03:48:40.363Z,12.49
2023-04-29T03:51:44.511Z,12.50
2023-04-29T03:54:49.106Z,12.50
2023-04-29T03:57:51.034Z,12.50
2023-04-29T04:00:54.276Z,12.52
2023-04-29T04:03:57.362Z,12.52
2023-04-29T04:07:00.269Z,12.53
2023-04-29T04:10:03.867Z,12.54
2023-04-29T04:13:05.896Z,12.54
2023-04-29T04:16:07.769Z,12.57
2023-04-29T04:19:09.844Z,12.57
2023-04-29T04:22:13.081Z,12.57
2023-04-29T04:25:15.862Z,12.56
2023-04-29T04:28:17.659Z,12.56
2023-04-29T04:31:29.267Z,12.55
2023-04-29T04:34:31.016Z,12.55
2023-04-29T04:37:34.184Z,12.55
2023-04-29T04:40:36.711Z,12.56
2023-04-29T04:43:53.105Z,12.57
2023-04-29T04:47:01.547Z,12.56
2023-04-29T04:50:29.840Z,12.56
2023-04-29T04:53:31.443Z,12.56
2023-04-29T04:56:37.846Z,12.57
2023-04-29T04:59:40.415Z,12.55
2023-04-29T05:02:42.326Z,12.54
2023-04-29T05:05:44.310Z,12.54
2023-04-29T05:08:46.440Z,12.53
2023-04-29T05:11:48.338Z,12.52
2023-04-29T05:14:54.828Z,12.52
2023-04-29T05:17:56.580Z,12.51
2023-04-29T05:20:59.438Z,12.51
2023-04-29T05:24:01.157Z,12.50
2023-04-29T05:27:03.772Z,12.52
2023-04-29T05:30:06.111Z,12.51
2023-04-29T05:33:08.378Z,12.50
2023-04-29T05:36:10.386Z,12.51
2023-04-29T05:39:12.997Z,12.51
2023-04-29T05:42:15.135Z,12.52
2023-04-29T05:45:20.822Z,12.51
2023-04-29T05:48:24.590Z,12.50
2023-04-29T05:51:27.735Z,12.48
2023-04-29T05:54:29.452Z,12.48
2023-04-29T05:57:31.481Z,12.46
2023-04-29T06:00:33.139Z,12.44
2023-04-29T06:03:37.110Z,12.43
2023-04-29T06:06:57.460Z,12.42
2023-04-29T06:10:16.458Z,12.41
2023-04-29T06:13:20.089Z,12.41
2023-04-29T06:16:21.966Z,12.41
2023-04-29T06:19:24.765Z,12.40
2023-04-29T06:22:27.277Z,12.41
2023-04-29T06:25:30.495Z,12.41
2023-04-29T06:28:32.317Z,12.41
2023-04-29T06:31:34.449Z,12.41
2023-04-29T06:34:38.861Z,12.43
2023-04-29T06:38:07.915Z,12.45
2023-04-29T06:41:09.726Z,12.47
2023-04-29T06:44:43.329Z,12.51
2023-04-29T06:48:01.530Z,12.53
2023-04-29T06:51:16.704Z,12.57
2023-04-29T06:54:18.409Z,12.59
2023-04-29T06:57:20.336Z,12.62
2023-04-29T07:00:22.239Z,12.64
2023-04-29T07:03:24.075Z,12.68
2023-04-29T07:06:26.344Z,12.71
2023-04-29T07:09:28.069Z,12.75
2023-04-29T07:12:29.857Z,12.79
2023-04-29T07:15:34.309Z,12.81
2023-04-29T07:18:36.034Z,12.85
2023-04-29T07:21:37.815Z,12.90
2023-04-29T07:24:39.859Z,12.93
2023-04-29T07:27:41.546Z,12.96
2023-04-29T07:30:43.372Z,12.99
2023-04-29T07:33:46.735Z,13.01
2023-04-29T07:36:48.461Z,13.04
2023-04-29T07:39:50.636Z,13.06
2023-04-29T07:42:52.494Z,13.09
2023-04-29T07:45:54.269Z,13.12
2023-04-29T07:48:56.082Z,13.15
2023-04-29T07:51:57.831Z,13.20
2023-04-29T07:54:59.520Z,13.26
2023-04-29T07:58:01.325Z,13.33
2023-04-29T08:01:09.764Z,13.42
2023-04-29T08:04:11.763Z,13.53
2023-04-29T08:07:22.705Z,13.65
2023-04-29T08:10:26.674Z,13.77
2023-04-29T08:13:28.424Z,13.93
2023-04-29T08:16:31.103Z,14.15
2023-04-29T08:19:32.982Z,14.36
2023-04-29T08:22:34.959Z,14.56
2023-04-29T08:25:36.627Z,14.80
2023-04-29T08:28:38.878Z,15.08
2023-04-29T08:31:40.698Z,15.29
2023-04-29T08:34:43.907Z,15.41
2023-04-29T08:37:47.144Z,15.48
2023-04-29T08:40:49.018Z,15.53
2023-04-29T08:43:50.826Z,15.59
2023-04-29T08:46:53.443Z,15.65
2023-04-29T08:49:55.186Z,15.70
2023-04-29T08:52:56.915Z,15.78
2023-04-29T08:56:08.061Z,15.88
2023-04-29T08:59:10.212Z,15.95
2023-04-29T09:02:16.485Z,15.98
2023-04-29T09:05:18.438Z,15.99
2023-04-29T09:08:24.098Z,15.95
2023-04-29T09:11:27.525Z,15.90
2023-04-29T09:14:32.799Z,15.86
2023-04-29T09:17:42.557Z,15.84
2023-04-29T09:20:44.329Z,15.84
2023-04-29T09:23:57.162Z,15.84
2023-04-29T09:27:02.745Z,15.85
2023-04-29T09:30:04.818Z,15.86
2023-04-29T09:33:08.627Z,15.86
2023-04-29T09:36:10.400Z,15.88
2023-04-29T09:39:16.931Z,15.89
2023-04-29T09:42:18.863Z,15.89
2023-04-29T09:45:43.363Z,15.92
2023-04-29T09:48:45.108Z,15.95
2023-04-29T09:51:57.910Z,15.96
2023-04-29T09:55:04.810Z,15.94
2023-04-29T09:58:06.534Z,15.88
2023-04-29T10:01:08.994Z,15.83
2023-04-29T10:04:13.484Z,15.77
2023-04-29T10:40:30.686Z,15.21
2023-04-29T10:43:32.598Z,15.19
2023-04-29T10:46:34.379Z,15.15
2023-04-29T10:49:36.136Z,15.13
2023-04-29T10:52:55.164Z,15.12
2023-04-29T10:56:07.244Z,15.11
2023-04-29T10:59:13.680Z,15.11
2023-04-29T11:02:15.467Z,15.09
2023-04-29T11:05:35.421Z,15.09
2023-04-29T11:08:39.305Z,15.07
2023-04-29T11:12:02.728Z,15.06
2023-04-29T11:15:07.838Z,15.04
2023-04-29T11:18:11.018Z,15.03
2023-04-29T11:21:14.060Z,15.02
2023-04-29T11:24:16.927Z,15.01
2023-04-29T11:27:22.255Z,15.01
2023-04-29T11:30:24.632Z,15.00
2023-04-29T11:33:27.400Z,15.00
2023-04-29T11:36:31.956Z,15.00
2023-04-29T11:39:38.040Z,14.99
2023-04-29T11:42:44.936Z,14.99
2023-04-29T11:45:47.670Z,15.00
2023-04-29T11:48:50.143Z,15.02
2023-04-29T11:51:51.808Z,15.03
2023-04-29T11:54:53.966Z,15.05
2023-04-29T11:57:56.248Z,15.06
2023-04-29T12:00:58.441Z,15.10
2023-04-29T12:04:00.606Z,15.14
2023-04-29T12:07:05.492Z,15.17
2023-04-29T12:10:09.298Z,15.20
2023-04-29T12:13:14.075Z,15.23
2023-04-29T12:16:17.575Z,15.22
2023-04-29T12:19:19.479Z,15.21
2023-04-29T12:22:21.223Z,15.20
2023-04-29T12:25:27.513Z,15.21
2023-04-29T12:28:30.125Z,15.23
2023-04-29T12:31:34.159Z,15.29
2023-04-29T12:34:35.871Z,15.39
2023-04-29T12:37:37.836Z,15.47
2023-04-29T12:40:39.648Z,15.57
2023-04-29T12:43:41.928Z,15.65
2023-04-29T12:46:43.565Z,15.74
2023-04-29T12:49:49.617Z,15.85
2023-04-29T12:52:51.383Z,16.08
2023-04-29T12:55:53.400Z,16.38
2023-04-29T12:58:55.111Z,16.54
2023-04-29T13:01:56.965Z,16.57
2023-04-29T13:04:59.450Z,16.54
2023-04-29T13:08:01.660Z,16.48
2023-04-29T13:11:03.408Z,16.41
2023-04-29T13:14:05.890Z,16.33
2023-04-29T13:17:07.913Z,16.26
2023-04-29T13:20:11.198Z,16.18
2023-04-29T13:23:12.872Z,16.13
2023-04-29T13:26:14.661Z,16.05
2023-04-29T13:29:16.370Z,15.98
2023-04-29T13:32:20.792Z,15.92
2023-04-29T13:35:22.666Z,15.87
2023-04-29T13:38:24.494Z,15.81
2023-04-29T13:41:26.880Z,15.76
2023-04-29T13:44:35.825Z,15.71
2023-04-29T13:48:07.678Z,15.68
2023-04-29T14:00:57.034Z,15.74
2023-04-29T14:03:47.205Z,15.80
2023-04-29T14:06:49.397Z,15.85
2023-04-29T14:09:51.316Z,15.95
2023-04-29T14:12:52.962Z,16.11
2023-04-29T14:15:56.033Z,16.24
2023-04-29T14:18:57.780Z,16.35
2023-04-29T14:21:59.471Z,16.46
2023-04-29T14:25:01.135Z,16.54
2023-04-29T14:28:08.711Z,16.58
2023-04-29T14:31:18.758Z,16.60
2023-04-29T14:34:20.668Z,16.63
2023-04-29T14:37:22.518Z,16.65
2023-04-29T14:40:24.239Z,16.67
2023-04-29T14:43:25.884Z,16.69
2023-04-29T14:46:28.985Z,16.68
2023-04-29T14:49:31.823Z,16.65
2023-04-29T14:52:33.640Z,16.59
2023-04-29T14:55:35.361Z,16.55
2023-04-29T14:58:37.247Z,16.50
2023-04-29T15:01:39.183Z,16.46
2023-04-29T15:04:44.984Z,16.44
2023-04-29T15:07:47.002Z,16.45
2023-04-29T15:10:49.413Z,16.43
2023-04-29T15:13:51.609Z,16.41
2023-04-29T15:16:53.484Z,16.36
2023-04-29T15:19:55.237Z,16.31
2023-04-29T15:22:56.979Z,16.25
2023-04-29T15:25:58.839Z,16.19
2023-04-29T15:29:00.807Z,16.13
2023-04-29T15:32:02.721Z,16.07
2023-04-29T15:35:06.027Z,16.01
2023-04-29T15:38:07.746Z,15.95
2023-04-29T15:41:09.425Z,15.89
2023-04-29T15:44:11.330Z,15.85
2023-04-29T15:47:13.135Z,15.80
2023-04-29T15:50:14.898Z,15.76
2023-04-29T15:53:16.565Z,15.72
2023-04-29T15:56:18.686Z,15.68
2023-04-29T15:59:23.203Z,15.63
2023-04-29T16:02:25.132Z,15.58
2023-04-29T16:05:27.142Z,15.53
2023-04-29T16:08:29.361Z,15.50
2023-04-29T16:11:32.082Z,15.46
2023-04-29T16:14:33.871Z,15.43
2023-04-29T16:17:36.305Z,15.39
2023-04-29T16:20:37.971Z,15.37
2023-04-29T16:23:39.862Z,15.33
2023-04-29T16:26:42.079Z,15.29
2023-04-29T16:29:44.037Z,15.25
2023-04-29T16:32:48.832Z,15.21
2023-04-29T16:35:51.129Z,15.18
2023-04-29T16:38:56.707Z,15.14
2023-04-29T16:41:58.989Z,15.11
2023-04-29T16:45:00.993Z,15.08
2023-04-29T16:48:03.087Z,15.04
2023-04-29T16:51:05.045Z,15.01
2023-04-29T16:54:07.474Z,14.97
2023-04-29T16:57:09.194Z,14.95
2023-04-29T17:00:11.771Z,14.92
2023-04-29T17:03:14.082Z,14.90
2023-04-29T17:06:16.014Z,14.88
2023-04-29T17:09:18.107Z,14.85
2023-04-29T17:12:19.937Z,14.83
2023-04-29T17:15:21.871Z,14.81
2023-04-29T17:18:23.600Z,14.79
2023-04-29T17:21:25.313Z,14.77
2023-04-29T17:24:26.986Z,14.74
2023-04-29T17:27:28.685Z,14.72
2023-04-29T17:30:30.564Z,14.70
2023-04-29T17:33:35.003Z,14.67
2023-04-29T17:36:36.813Z,14.65
2023-04-29T17:39:38.498Z,14.63
2023-04-29T17:42:40.296Z,14.61
2023-04-29T17:45:42.009Z,14.59
2023-04-29T17:48:43.724Z,14.56
2023-04-29T17:51:45.455Z,14.54
2023-04-29T17:54:50.163Z,14.53
2023-04-29T17:57:52.125Z,14.50
2023-04-29T18:00:55.430Z,14.48
2023-04-29T18:03:57.340Z,14.46
2023-04-29T18:06:59.121Z,14.44
2023-04-29T18:10:00.867Z,14.43
2023-04-29T18:13:02.830Z,14.41
2023-04-29T18:16:06.514Z,14.39
2023-04-29T18:19:08.663Z,14.38
2023-04-29T18:22:10.365Z,14.37
2023-04-29T18:25:12.069Z,14.35
2023-04-29T18:28:24.672Z,14.34
2023-04-29T18:31:27.288Z,14.34
2023-04-29T18:34:29.216Z,14.33
2023-04-29T18:37:31.094Z,14.32
2023-04-29T18:40:32.963Z,14.32
2023-04-29T18:43:34.685Z,14.32
2023-04-29T18:46:36.512Z,14.31
2023-04-29T18:49:38.535Z,14.32
2023-04-29T18:52:41.310Z,14.31
2023-04-29T18:55:43.638Z,14.31
2023-04-29T18:58:45.226Z,14.30
2023-04-29T19:01:47.863Z,14.32
2023-04-29T19:04:49.888Z,14.32
2023-04-29T19:07:51.669Z,14.32
2023-04-29T19:10:53.656Z,14.32
2023-04-29T19:13:55.588Z,14.32
2023-04-29T19:16:57.298Z,14.30
2023-04-29T19:19:59.355Z,14.29
2023-04-29T19:23:01.111Z,14.27
2023-04-29T19:26:03.089Z,14.25
2023-04-29T19:29:04.811Z,14.21
2023-04-29T19:32:06.690Z,14.16
2023-04-29T19:35:08.722Z,14.11
2023-04-29T19:38:10.555Z,14.06
2023-04-29T19:41:12.227Z,14.02
2023-04-29T19:44:14.032Z,13.98
2023-04-29T19:47:15.701Z,13.95
2023-04-29T19:50:18.258Z,13.92
2023-04-29T19:53:20.039Z,13.88
2023-04-29T19:56:22.722Z,13.86
2023-04-29T19:59:24.409Z,13.83
2023-04-29T20:02:26.509Z,13.81
2023-04-29T20:05:28.506Z,13.79
2023-04-29T20:08:30.449Z,13.77
2023-04-29T20:11:32.185Z,13.76
2023-04-29T20:14:33.841Z,13.76
2023-04-29T20:17:36.863Z,13.75
2023-04-29T20:20:38.647Z,13.74
2023-04-29T20:23:40.450Z,13.74
2023-04-29T20:26:42.130Z,13.73
2023-04-29T20:29:44.342Z,13.72
2023-04-29T20:32:46.478Z,13.71
2023-04-29T20:35:48.129Z,13.71
2023-04-29T20:38:50.069Z,13.70
2023-04-29T20:41:51.819Z,13.69
2023-04-29T20:44:54.383Z,13.68
2023-04-29T20:47:56.118Z,13.66
2023-04-29T20:50:57.881Z,13.65
2023-04-29T20:53:59.567Z,13.63
2023-04-29T20:57:04.766Z,13.63
2023-04-29T21:00:07.102Z,13.63
2023-04-29T21:03:08.851Z,13.62
2023-04-29T21:06:11.195Z,13.63
2023-04-29T21:09:13.135Z,13.62
2023-04-29T21:12:14.854Z,13.62
2023-04-29T21:15:16.857Z,13.62
2023-04-29T21:18:18.544Z,13.62
2023-04-29T21:21:22.363Z,13.62
2023-04-29T21:24:26.202Z,13.61
2023-04-29T21:27:27.937Z,13.61
2023-04-29T21:30:29.684Z,13.60
2023-04-29T21:33:31.311Z,13.60
2023-04-29T21:36:33.289Z,13.59
2023-04-29T21:39:35.194Z,13.58
2023-04-29T21:42:37.248Z,13.59
2023-04-29T21:45:39.399Z,13.58
2023-04-29T21:48:41.414Z,13.58
2023-04-29T21:51:43.400Z,13.57
2023-04-29T21:54:45.211Z,13.56
2023-04-29T21:57:46.907Z,13.56
2023-04-29T22:00:57.903Z,13.56
2023-04-29T22:03:59.763Z,13.56
2023-04-29T22:07:01.438Z,13.55
2023-04-29T22:10:03.618Z,13.53
2023-04-29T22:13:05.320Z,13.53
2023-04-29T22:16:07.710Z,13.52
2023-04-29T22:19:09.395Z,13.52
2023-04-29T22:22:11.124Z,13.51
2023-04-29T22:25:12.802Z,13.50
2023-04-29T22:28:14.682Z,13.50
2023-04-29T22:31:16.415Z,13.49
2023-04-29T22:34:18.161Z,13.47
2023-04-29T22:37:19.847Z,13.45
2023-04-29T22:40:21.501Z,13.43
2023-04-29T22:43:23.438Z,13.42
2023-04-29T22:46:25.555Z,13.41
2023-04-29T22:49:27.554Z,13.40
2023-04-29T22:52:29.592Z,13.39
2023-04-29T22:55:31.259Z,13.38
2023-04-29T22:58:33.252Z,13.35
2023-04-29T23:01:36.085Z,13.34
2023-04-29T23:04:37.855Z,13.33
2023-04-29T23:07:40.532Z,13.33
2023-04-29T23:10:48.202Z,13.32
2023-04-29T23:13:50.077Z,13.30
2023-04-29T23:16:52.683Z,13.29
2023-04-29T23:19:54.640Z,13.27
2023-04-29T23:22:56.469Z,13.25
2023-04-29T23:25:58.123Z,13.22
2023-04-29T23:28:59.972Z,13.20
2023-04-29T23:32:01.976Z,13.18
2023-04-29T23:35:03.929Z,13.16
2023-04-29T23:38:05.875Z,13.15
2023-04-29T23:41:07.607Z,13.15
2023-04-29T23:44:09.323Z,13.14
2023-04-29T23:47:11.068Z,13.14
2023-04-29T23:50:12.845Z,13.11
2023-04-29T23:53:15.117Z,13.10
2023-04-29T23:56:16.864Z,13.09
2023-04-29T23:59:18.620Z,13.07
